sensor_id;sensor_type;location;lat;lon;timestamp;pressure;altitude;pressure_sealevel;temperature;humidity
42385;BME280;28042;43.986;22.860;2022-10-31T00:00:41;101581.22;;;12.92;73.05
42385;BME280;28042;43.986;22.860;2022-10-31T00:03:06;101573.41;;;12.89;72.77
42385;BME280;28042;43.986;22.860;2022-10-31T00:05:32;101575.09;;;12.90;73.03
42385;BME280;28042;43.986;22.860;2022-10-31T00:07:57;101581.16;;;12.85;73.58
42385;BME280;28042;43.986;22.860;2022-10-31T00:10:23;101544.06;;;12.68;73.43
42385;BME280;28042;43.986;22.860;2022-10-31T00:12:48;101530.88;;;12.71;73.21
42385;BME280;28042;43.986;22.860;2022-10-31T00:15:14;101540.94;;;12.86;73.14
42385;BME280;28042;43.986;22.860;2022-10-31T00:17:39;101585.53;;;13.16;72.59
42385;BME280;28042;43.986;22.860;2022-10-31T00:20:05;101523.34;;;12.95;72.30
42385;BME280;28042;43.986;22.860;2022-10-31T00:22:31;101573.72;;;13.15;72.71
42385;BME280;28042;43.986;22.860;2022-10-31T00:24:56;101583.09;;;13.06;73.58
42385;BME280;28042;43.986;22.860;2022-10-31T00:27:22;101586.09;;;13.11;74.08
42385;BME280;28042;43.986;22.860;2022-10-31T00:29:47;101534.53;;;12.79;74.14
42385;BME280;28042;43.986;22.860;2022-10-31T00:32:13;101536.88;;;12.82;73.67
42385;BME280;28042;43.986;22.860;2022-10-31T00:34:38;101577.88;;;13.11;73.52
42385;BME280;28042;43.986;22.860;2022-10-31T00:37:04;101570.38;;;12.84;74.41
42385;BME280;28042;43.986;22.860;2022-10-31T00:39:29;101543.81;;;12.48;75.70
42385;BME280;28042;43.986;22.860;2022-10-31T00:41:55;101541.72;;;12.50;76.73
42385;BME280;28042;43.986;22.860;2022-10-31T00:44:20;101599.75;;;12.90;76.10
42385;BME280;28042;43.986;22.860;2022-10-31T00:46:45;101537.97;;;12.51;76.24
42385;BME280;28042;43.986;22.860;2022-10-31T00:49:11;101543.25;;;12.53;76.36
42385;BME280;28042;43.986;22.860;2022-10-31T00:51:37;101547.88;;;12.52;76.64
42385;BME280;28042;43.986;22.860;2022-10-31T00:54:03;101534.56;;;12.49;76.35
42385;BME280;28042;43.986;22.860;2022-10-31T00:56:28;101542.41;;;12.52;76.25
42385;BME280;28042;43.986;22.860;2022-10-31T00:58:54;101591.19;;;12.78;76.28
42385;BME280;28042;43.986;22.860;2022-10-31T01:01:20;101541.06;;;12.48;76.13
42385;BME280;28042;43.986;22.860;2022-10-31T01:03:45;101552.97;;;12.55;76.07
42385;BME280;28042;43.986;22.860;2022-10-31T01:06:12;101596.38;;;12.73;75.93
42385;BME280;28042;43.986;22.860;2022-10-31T01:08:38;101535.03;;;12.38;76.09
42385;BME280;28042;43.986;22.860;2022-10-31T01:11:11;101537.97;;;12.22;76.51
42385;BME280;28042;43.986;22.860;2022-10-31T01:13:37;101585.72;;;12.34;77.75
42385;BME280;28042;43.986;22.860;2022-10-31T01:16:04;101546.53;;;12.04;78.45
42385;BME280;28042;43.986;22.860;2022-10-31T01:18:31;101606.66;;;12.27;79.28
42385;BME280;28042;43.986;22.860;2022-10-31T01:21:02;101596.44;;;12.21;79.93
42385;BME280;28042;43.986;22.860;2022-10-31T01:23:28;101592.41;;;12.16;80.29
42385;BME280;28042;43.986;22.860;2022-10-31T01:26:06;101592.03;;;12.20;80.32
42385;BME280;28042;43.986;22.860;2022-10-31T01:28:34;101534.63;;;11.82;80.72
42385;BME280;28042;43.986;22.860;2022-10-31T01:31:00;101594.53;;;12.06;80.90
42385;BME280;28042;43.986;22.860;2022-10-31T01:33:26;101561.03;;;11.67;82.19
42385;BME280;28042;43.986;22.860;2022-10-31T01:35:52;101588.63;;;11.80;83.11
42385;BME280;28042;43.986;22.860;2022-10-31T01:38:17;101600.56;;;11.79;83.29
42385;BME280;28042;43.986;22.860;2022-10-31T01:40:43;101585.91;;;11.72;83.49
42385;BME280;28042;43.986;22.860;2022-10-31T01:43:13;101600.22;;;11.59;84.56
42385;BME280;28042;43.986;22.860;2022-10-31T01:45:39;101549.03;;;11.30;85.94
42385;BME280;28042;43.986;22.860;2022-10-31T01:48:05;101578.66;;;11.41;86.66
42385;BME280;28042;43.986;22.860;2022-10-31T01:50:34;101551.63;;;11.23;86.77
42385;BME280;28042;43.986;22.860;2022-10-31T01:53:01;101559.00;;;11.23;86.89
42385;BME280;28042;43.986;22.860;2022-10-31T01:55:30;101606.13;;;11.48;87.93
42385;BME280;28042;43.986;22.860;2022-10-31T01:58:02;101601.84;;;11.45;88.64
42385;BME280;28042;43.986;22.860;2022-10-31T02:00:30;101607.25;;;11.53;88.21
42385;BME280;28042;43.986;22.860;2022-10-31T02:02:55;101594.56;;;11.60;88.17
42385;BME280;28042;43.986;22.860;2022-10-31T02:05:26;101597.66;;;11.57;87.84
42385;BME280;28042;43.986;22.860;2022-10-31T02:08:05;101603.53;;;11.46;88.05
42385;BME280;28042;43.986;22.860;2022-10-31T02:10:33;101611.06;;;11.44;88.63
42385;BME280;28042;43.986;22.860;2022-10-31T02:13:02;101611.50;;;11.33;89.17
42385;BME280;28042;43.986;22.860;2022-10-31T02:15:28;101569.31;;;11.13;89.21
42385;BME280;28042;43.986;22.860;2022-10-31T02:17:55;101623.75;;;11.37;88.74
42385;BME280;28042;43.986;22.860;2022-10-31T02:20:23;101556.03;;;11.01;89.11
42385;BME280;28042;43.986;22.860;2022-10-31T02:35:50;101639.94;;;11.16;91.37
42385;BME280;28042;43.986;22.860;2022-10-31T02:49:07;101612.56;;;10.93;93.30
42385;BME280;28042;43.986;22.860;2022-10-31T02:51:35;101635.94;;;10.95;93.08
42385;BME280;28042;43.986;22.860;2022-10-31T02:54:01;101575.00;;;10.64;93.00
42385;BME280;28042;43.986;22.860;2022-10-31T02:56:27;101573.09;;;10.72;93.36
42385;BME280;28042;43.986;22.860;2022-10-31T02:58:57;101624.06;;;11.42;90.82
42385;BME280;28042;43.986;22.860;2022-10-31T03:01:33;101635.34;;;11.93;86.59
42385;BME280;28042;43.986;22.860;2022-10-31T03:10:17;101631.47;;;12.40;81.86
42385;BME280;28042;43.986;22.860;2022-10-31T03:15:36;101642.59;;;12.38;81.73
42385;BME280;28042;43.986;22.860;2022-10-31T03:20:46;101641.75;;;12.38;80.54
42385;BME280;28042;43.986;22.860;2022-10-31T03:23:17;101651.28;;;12.42;80.49
42385;BME280;28042;43.986;22.860;2022-10-31T03:25:45;101616.25;;;12.23;80.22
42385;BME280;28042;43.986;22.860;2022-10-31T03:28:12;101641.19;;;12.28;80.06
42385;BME280;28042;43.986;22.860;2022-10-31T03:30:42;101641.91;;;12.22;80.28
42385;BME280;28042;43.986;22.860;2022-10-31T03:33:15;101647.38;;;12.22;80.60
42385;BME280;28042;43.986;22.860;2022-10-31T03:35:42;101655.31;;;12.16;80.73
42385;BME280;28042;43.986;22.860;2022-10-31T03:38:11;101595.53;;;11.68;82.05
42385;BME280;28042;43.986;22.860;2022-10-31T03:40:38;101646.56;;;11.98;82.07
42385;BME280;28042;43.986;22.860;2022-10-31T03:43:12;101595.59;;;11.59;82.21
42385;BME280;28042;43.986;22.860;2022-10-31T03:45:45;101647.41;;;11.76;83.22
42385;BME280;28042;43.986;22.860;2022-10-31T03:48:13;101652.50;;;11.79;83.28
42385;BME280;28042;43.986;22.860;2022-10-31T03:53:20;101664.81;;;11.52;85.21
42385;BME280;28042;43.986;22.860;2022-10-31T03:55:51;101596.91;;;11.18;85.66
42385;BME280;28042;43.986;22.860;2022-10-31T03:58:22;101659.91;;;11.47;86.00
42385;BME280;28042;43.986;22.860;2022-10-31T04:00:51;101643.25;;;11.34;86.53
42385;BME280;28042;43.986;22.860;2022-10-31T04:03:28;101663.41;;;11.33;86.84
42385;BME280;28042;43.986;22.860;2022-10-31T04:05:58;101658.31;;;11.30;87.49
42385;BME280;28042;43.986;22.860;2022-10-31T04:08:28;101633.63;;;11.15;87.45
42385;BME280;28042;43.986;22.860;2022-10-31T04:10:56;101615.28;;;10.93;87.71
42385;BME280;28042;43.986;22.860;2022-10-31T04:13:26;101601.19;;;10.81;87.78
42385;BME280;28042;43.986;22.860;2022-10-31T04:15:54;101592.66;;;10.76;88.24
42385;BME280;28042;43.986;22.860;2022-10-31T04:18:22;101658.91;;;11.09;88.31
42385;BME280;28042;43.986;22.860;2022-10-31T04:20:47;101599.38;;;10.65;88.69
42385;BME280;28042;43.986;22.860;2022-10-31T04:23:20;101656.78;;;10.88;89.30
42385;BME280;28042;43.986;22.860;2022-10-31T04:25:47;101597.88;;;10.55;90.34
42385;BME280;28042;43.986;22.860;2022-10-31T04:28:12;101670.44;;;10.88;90.49
42385;BME280;28042;43.986;22.860;2022-10-31T04:30:38;101663.78;;;10.83;90.99
42385;BME280;28042;43.986;22.860;2022-10-31T04:33:03;101648.94;;;10.77;90.91
42385;BME280;28042;43.986;22.860;2022-10-31T04:35:29;101661.41;;;10.80;91.32
42385;BME280;28042;43.986;22.860;2022-10-31T04:37:54;101616.31;;;10.53;91.55
42385;BME280;28042;43.986;22.860;2022-10-31T04:40:20;101653.25;;;10.71;91.28
42385;BME280;28042;43.986;22.860;2022-10-31T04:42:45;101667.56;;;10.73;91.64
42385;BME280;28042;43.986;22.860;2022-10-31T04:45:31;101660.91;;;10.68;91.64
42385;BME280;28042;43.986;22.860;2022-10-31T04:47:56;101624.00;;;10.41;92.12
42385;BME280;28042;43.986;22.860;2022-10-31T04:50:22;101621.25;;;10.41;92.49
42385;BME280;28042;43.986;22.860;2022-10-31T04:52:47;101616.84;;;10.40;92.26
42385;BME280;28042;43.986;22.860;2022-10-31T04:55:13;101608.50;;;10.33;92.60
42385;BME280;28042;43.986;22.860;2022-10-31T05:00:08;101604.78;;;10.26;93.61
42385;BME280;28042;43.986;22.860;2022-10-31T05:02:34;101608.00;;;10.38;93.31
42385;BME280;28042;43.986;22.860;2022-10-31T05:04:59;101619.75;;;10.30;93.27
42385;BME280;28042;43.986;22.860;2022-10-31T05:07:25;101646.13;;;10.54;94.04
42385;BME280;28042;43.986;22.860;2022-10-31T05:09:50;101659.59;;;10.56;93.95
42385;BME280;28042;43.986;22.860;2022-10-31T05:12:16;101607.66;;;10.33;94.66
42385;BME280;28042;43.986;22.860;2022-10-31T05:14:42;101651.41;;;10.64;94.10
42385;BME280;28042;43.986;22.860;2022-10-31T05:17:07;101681.78;;;10.53;94.75
42385;BME280;28042;43.986;22.860;2022-10-31T05:19:33;101670.88;;;10.53;97.68
42385;BME280;28042;43.986;22.860;2022-10-31T05:21:58;101665.03;;;10.72;97.31
42385;BME280;28042;43.986;22.860;2022-10-31T05:24:24;101678.69;;;10.64;95.76
42385;BME280;28042;43.986;22.860;2022-10-31T05:26:49;101684.81;;;10.58;96.70
42385;BME280;28042;43.986;22.860;2022-10-31T05:29:15;101619.09;;;10.28;96.00
42385;BME280;28042;43.986;22.860;2022-10-31T05:31:40;101622.81;;;10.43;96.03
42385;BME280;28042;43.986;22.860;2022-10-31T05:34:06;101642.03;;;10.58;95.04
42385;BME280;28042;43.986;22.860;2022-10-31T05:36:31;101689.19;;;10.91;95.34
42385;BME280;28042;43.986;22.860;2022-10-31T05:38:57;101643.00;;;10.73;94.85
42385;BME280;28042;43.986;22.860;2022-10-31T05:41:22;101636.84;;;10.80;94.28
42385;BME280;28042;43.986;22.860;2022-10-31T05:43:48;101655.69;;;11.06;93.23
42385;BME280;28042;43.986;22.860;2022-10-31T05:46:13;101694.47;;;11.32;92.68
42385;BME280;28042;43.986;22.860;2022-10-31T05:48:38;101647.16;;;11.00;92.21
42385;BME280;28042;43.986;22.860;2022-10-31T05:51:04;101636.94;;;10.94;93.21
42385;BME280;28042;43.986;22.860;2022-10-31T05:53:30;101695.78;;;11.44;94.00
42385;BME280;28042;43.986;22.860;2022-10-31T05:55:55;101642.25;;;11.27;92.94
42385;BME280;28042;43.986;22.860;2022-10-31T05:58:21;101704.16;;;11.74;92.46
42385;BME280;28042;43.986;22.860;2022-10-31T06:00:46;101657.75;;;11.66;91.47
42385;BME280;28042;43.986;22.860;2022-10-31T06:03:12;101686.84;;;12.04;90.26
42385;BME280;28042;43.986;22.860;2022-10-31T06:05:37;101655.53;;;11.92;89.38
42385;BME280;28042;43.986;22.860;2022-10-31T06:08:02;101640.75;;;12.01;88.57
42385;BME280;28042;43.986;22.860;2022-10-31T06:10:28;101677.97;;;12.40;87.25
42385;BME280;28042;43.986;22.860;2022-10-31T06:12:54;101645.91;;;12.34;86.29
42385;BME280;28042;43.986;22.860;2022-10-31T06:15:19;101692.00;;;12.74;85.57
42385;BME280;28042;43.986;22.860;2022-10-31T06:17:45;101695.59;;;12.90;84.39
42385;BME280;28042;43.986;22.860;2022-10-31T06:20:10;101660.56;;;12.85;83.42
42385;BME280;28042;43.986;22.860;2022-10-31T06:22:36;101707.50;;;13.26;82.85
42385;BME280;28042;43.986;22.860;2022-10-31T06:25:01;101706.00;;;13.39;82.76
42385;BME280;28042;43.986;22.860;2022-10-31T06:27:27;101658.69;;;13.30;81.85
42385;BME280;28042;43.986;22.860;2022-10-31T06:29:53;101715.28;;;13.74;80.44
42385;BME280;28042;43.986;22.860;2022-10-31T06:32:18;101671.31;;;13.67;78.96
42385;BME280;28042;43.986;22.860;2022-10-31T06:34:44;101664.25;;;13.79;76.69
42385;BME280;28042;43.986;22.860;2022-10-31T06:37:12;101706.53;;;14.28;75.79
42385;BME280;28042;43.986;22.860;2022-10-31T06:39:38;101685.41;;;14.28;75.41
42385;BME280;28042;43.986;22.860;2022-10-31T06:42:04;101725.25;;;14.67;73.29
42385;BME280;28042;43.986;22.860;2022-10-31T06:44:30;101724.66;;;14.72;72.64
42385;BME280;28042;43.986;22.860;2022-10-31T06:46:55;101734.34;;;14.95;72.95
42385;BME280;28042;43.986;22.860;2022-10-31T06:49:21;101685.00;;;14.81;72.28
42385;BME280;28042;43.986;22.860;2022-10-31T06:51:48;101733.06;;;15.33;70.91
42385;BME280;28042;43.986;22.860;2022-10-31T06:54:14;101686.09;;;15.27;69.78
42385;BME280;28042;43.986;22.860;2022-10-31T06:56:39;101736.00;;;15.72;68.84
42385;BME280;28042;43.986;22.860;2022-10-31T06:59:05;101730.13;;;15.82;68.83
42385;BME280;28042;43.986;22.860;2022-10-31T07:01:30;101695.19;;;15.76;67.43
42385;BME280;28042;43.986;22.860;2022-10-31T07:03:56;101730.63;;;16.19;66.07
42385;BME280;28042;43.986;22.860;2022-10-31T07:06:21;101695.88;;;16.11;64.60
42385;BME280;28042;43.986;22.860;2022-10-31T07:08:47;101714.75;;;16.47;63.11
42385;BME280;28042;43.986;22.860;2022-10-31T07:11:12;101709.06;;;16.69;62.30
42385;BME280;28042;43.986;22.860;2022-10-31T07:13:38;101704.16;;;16.84;61.39
42385;BME280;28042;43.986;22.860;2022-10-31T07:16:04;101703.69;;;17.00;60.84
42385;BME280;28042;43.986;22.860;2022-10-31T07:18:32;101656.22;;;16.85;60.53
42385;BME280;28042;43.986;22.860;2022-10-31T07:20:58;101667.22;;;16.98;60.35
42385;BME280;28042;43.986;22.860;2022-10-31T07:23:23;101659.56;;;17.07;60.21
42385;BME280;28042;43.986;22.860;2022-10-31T07:25:57;101660.09;;;17.29;59.78
42385;BME280;28042;43.986;22.860;2022-10-31T07:28:24;101677.59;;;17.54;59.13
42385;BME280;28042;43.986;22.860;2022-10-31T07:30:52;101700.03;;;17.77;59.01
42385;BME280;28042;43.986;22.860;2022-10-31T07:33:17;101670.72;;;17.76;58.40
42385;BME280;28042;43.986;22.860;2022-10-31T07:35:43;101702.69;;;18.22;57.34
42385;BME280;28042;43.986;22.860;2022-10-31T07:38:10;101693.25;;;18.36;56.61
42385;BME280;28042;43.986;22.860;2022-10-31T07:40:36;101710.50;;;18.57;56.40
42385;BME280;28042;43.986;22.860;2022-10-31T07:43:01;101696.41;;;18.65;56.36
42385;BME280;28042;43.986;22.860;2022-10-31T07:45:27;101706.91;;;18.81;55.98
42385;BME280;28042;43.986;22.860;2022-10-31T07:47:52;101660.44;;;18.72;55.83
42385;BME280;28042;43.986;22.860;2022-10-31T07:50:21;101657.13;;;18.81;55.61
42385;BME280;28042;43.986;22.860;2022-10-31T07:52:47;101698.78;;;19.23;55.09
42385;BME280;28042;43.986;22.860;2022-10-31T07:55:13;101690.56;;;19.35;54.42
42385;BME280;28042;43.986;22.860;2022-10-31T07:57:39;101657.75;;;19.38;53.32
42385;BME280;28042;43.986;22.860;2022-10-31T08:00:06;101707.31;;;19.88;52.06
42385;BME280;28042;43.986;22.860;2022-10-31T08:02:32;101700.44;;;20.09;51.86
42385;BME280;28042;43.986;22.860;2022-10-31T08:04:57;101693.97;;;20.27;51.05
42385;BME280;28042;43.986;22.860;2022-10-31T08:07:25;101651.31;;;20.28;50.06
42385;BME280;28042;43.986;22.860;2022-10-31T08:09:50;101691.16;;;20.69;48.56
42385;BME280;28042;43.986;22.860;2022-10-31T08:12:16;101658.34;;;20.66;47.39
42385;BME280;28042;43.986;22.860;2022-10-31T08:14:41;101691.13;;;21.04;47.20
42385;BME280;28042;43.986;22.860;2022-10-31T08:17:07;101695.94;;;21.08;46.80
42385;BME280;28042;43.986;22.860;2022-10-31T08:19:32;101715.72;;;21.24;46.39
42385;BME280;28042;43.986;22.860;2022-10-31T08:21:58;101688.19;;;21.34;45.67
42385;BME280;28042;43.986;22.860;2022-10-31T08:24:24;101693.81;;;21.51;45.95
42385;BME280;28042;43.986;22.860;2022-10-31T08:26:49;101688.59;;;21.54;45.92
42385;BME280;28042;43.986;22.860;2022-10-31T08:29:15;101695.38;;;21.58;45.17
42385;BME280;28042;43.986;22.860;2022-10-31T08:31:42;101692.41;;;21.77;45.11
42385;BME280;28042;43.986;22.860;2022-10-31T08:34:07;101683.78;;;21.90;45.12
42385;BME280;28042;43.986;22.860;2022-10-31T08:36:33;101657.38;;;21.76;44.70
42385;BME280;28042;43.986;22.860;2022-10-31T08:38:59;101639.72;;;21.82;44.74
42385;BME280;28042;43.986;22.860;2022-10-31T08:41:24;101633.16;;;21.88;44.02
42385;BME280;28042;43.986;22.860;2022-10-31T08:43:50;101636.63;;;21.95;43.71
42385;BME280;28042;43.986;22.860;2022-10-31T08:46:16;101639.19;;;22.13;43.47
42385;BME280;28042;43.986;22.860;2022-10-31T08:48:41;101671.72;;;22.46;43.05
42385;BME280;28042;43.986;22.860;2022-10-31T08:51:08;101640.56;;;22.27;42.92
42385;BME280;28042;43.986;22.860;2022-10-31T08:53:33;101670.59;;;22.64;42.81
42385;BME280;28042;43.986;22.860;2022-10-31T08:55:59;101643.81;;;22.58;42.21
42385;BME280;28042;43.986;22.860;2022-10-31T08:58:24;101647.69;;;22.57;42.50
42385;BME280;28042;43.986;22.860;2022-10-31T09:00:53;101676.06;;;22.93;41.48
42385;BME280;28042;43.986;22.860;2022-10-31T09:05:47;101686.00;;;23.27;40.79
42385;BME280;28042;43.986;22.860;2022-10-31T09:08:13;101628.91;;;23.03;40.47
42385;BME280;28042;43.986;22.860;2022-10-31T09:10:40;101652.47;;;23.17;40.51
42385;BME280;28042;43.986;22.860;2022-10-31T09:13:10;101690.47;;;23.50;40.76
42385;BME280;28042;43.986;22.860;2022-10-31T09:15:38;101686.66;;;23.56;40.21
42385;BME280;28042;43.986;22.860;2022-10-31T09:18:08;101654.53;;;23.49;40.00
42385;BME280;28042;43.986;22.860;2022-10-31T09:20:35;101635.03;;;23.49;40.24
42385;BME280;28042;43.986;22.860;2022-10-31T09:23:02;101679.50;;;23.87;39.16
42385;BME280;28042;43.986;22.860;2022-10-31T09:25:28;101630.81;;;23.68;39.20
42385;BME280;28042;43.986;22.860;2022-10-31T09:27:57;101685.25;;;24.03;39.49
42385;BME280;28042;43.986;22.860;2022-10-31T09:30:24;101680.66;;;24.18;39.15
42385;BME280;28042;43.986;22.860;2022-10-31T09:33:00;101680.44;;;24.25;38.79
42385;BME280;28042;43.986;22.860;2022-10-31T09:35:27;101678.75;;;24.24;38.78
42385;BME280;28042;43.986;22.860;2022-10-31T09:38:04;101672.22;;;24.40;38.55
42385;BME280;28042;43.986;22.860;2022-10-31T09:48:09;101677.50;;;24.74;37.33
42385;BME280;28042;43.986;22.860;2022-10-31T09:50:45;101674.19;;;24.82;37.41
42385;BME280;28042;43.986;22.860;2022-10-31T09:55:57;101628.34;;;24.68;37.18
42385;BME280;28042;43.986;22.860;2022-10-31T09:58:28;101628.34;;;24.68;37.02
42385;BME280;28042;43.986;22.860;2022-10-31T10:00:58;101626.97;;;24.75;36.91
42385;BME280;28042;43.986;22.860;2022-10-31T10:03:46;101669.69;;;25.18;36.42
42385;BME280;28042;43.986;22.860;2022-10-31T10:06:22;101666.03;;;25.18;36.55
42385;BME280;28042;43.986;22.860;2022-10-31T10:08:48;101659.41;;;25.34;36.24
42385;BME280;28042;43.986;22.860;2022-10-31T10:14:24;101653.88;;;25.44;36.28
42385;BME280;28042;43.986;22.860;2022-10-31T10:30:15;101620.41;;;25.70;35.70
42385;BME280;28042;43.986;22.860;2022-10-31T10:32:57;101581.81;;;25.61;35.34
42385;BME280;28042;43.986;22.860;2022-10-31T10:35:30;101631.66;;;25.95;35.00
42385;BME280;28042;43.986;22.860;2022-10-31T10:40:48;101627.75;;;25.91;34.92
42385;BME280;28042;43.986;22.860;2022-10-31T10:43:26;101627.19;;;26.04;34.90
42385;BME280;28042;43.986;22.860;2022-10-31T10:48:49;101623.28;;;26.26;34.16
42385;BME280;28042;43.986;22.860;2022-10-31T10:51:37;101603.16;;;26.18;34.31
42385;BME280;28042;43.986;22.860;2022-10-31T10:57:03;101622.72;;;26.08;34.38
42385;BME280;28042;43.986;22.860;2022-10-31T10:59:32;101612.66;;;26.17;34.69
42385;BME280;28042;43.986;22.860;2022-10-31T11:01:58;101617.97;;;26.29;33.99
42385;BME280;28042;43.986;22.860;2022-10-31T11:07:05;101619.34;;;26.67;33.81
42385;BME280;28042;43.986;22.860;2022-10-31T11:09:51;101610.13;;;26.46;34.07
42385;BME280;28042;43.986;22.860;2022-10-31T11:12:26;101584.13;;;26.20;33.61
42385;BME280;28042;43.986;22.860;2022-10-31T11:14:57;101610.44;;;26.50;34.15
42385;BME280;28042;43.986;22.860;2022-10-31T11:17:32;101566.75;;;26.29;33.66
42385;BME280;28042;43.986;22.860;2022-10-31T11:20:02;101602.28;;;26.59;33.78
42385;BME280;28042;43.986;22.860;2022-10-31T11:22:28;101551.06;;;26.53;33.18
42385;BME280;28042;43.986;22.860;2022-10-31T11:24:54;101589.84;;;26.95;33.12
42385;BME280;28042;43.986;22.860;2022-10-31T11:27:21;101599.03;;;27.21;32.87
42385;BME280;28042;43.986;22.860;2022-10-31T11:29:48;101580.84;;;27.14;32.76
42385;BME280;28042;43.986;22.860;2022-10-31T11:32:22;101587.16;;;27.35;32.51
42385;BME280;28042;43.986;22.860;2022-10-31T11:34:58;101577.59;;;27.46;32.21
42385;BME280;28042;43.986;22.860;2022-10-31T11:37:27;101583.69;;;27.53;32.66
42385;BME280;28042;43.986;22.860;2022-10-31T11:39:57;101538.91;;;27.43;31.96
42385;BME280;28042;43.986;22.860;2022-10-31T11:42:39;101573.47;;;27.77;31.89
42385;BME280;28042;43.986;22.860;2022-10-31T11:47:42;101566.81;;;27.63;32.13
42385;BME280;28042;43.986;22.860;2022-10-31T11:50:11;101562.78;;;27.79;31.40
42385;BME280;28042;43.986;22.860;2022-10-31T11:52:39;101574.00;;;27.79;31.74
42385;BME280;28042;43.986;22.860;2022-10-31T11:57:48;101577.31;;;27.42;31.85
42385;BME280;28042;43.986;22.860;2022-10-31T12:03:20;101558.94;;;27.65;32.28
42385;BME280;28042;43.986;22.860;2022-10-31T12:06:07;101568.53;;;27.59;31.94
42385;BME280;28042;43.986;22.860;2022-10-31T12:08:43;101519.97;;;27.29;31.74
42385;BME280;28042;43.986;22.860;2022-10-31T12:19:39;101560.06;;;27.69;31.96
42385;BME280;28042;43.986;22.860;2022-10-31T12:24:47;101556.72;;;27.67;30.82
42385;BME280;28042;43.986;22.860;2022-10-31T12:41:47;101494.16;;;27.32;31.06
42385;BME280;28042;43.986;22.860;2022-10-31T12:57:43;101482.56;;;27.05;32.17
42385;BME280;28042;43.986;22.860;2022-10-31T13:00:15;101496.41;;;27.30;31.53
42385;BME280;28042;43.986;22.860;2022-10-31T13:02:51;101517.53;;;27.57;31.21
42385;BME280;28042;43.986;22.860;2022-10-31T13:08:47;101521.56;;;27.36;32.17
42385;BME280;28042;43.986;22.860;2022-10-31T13:11:28;101523.47;;;27.45;31.54
42385;BME280;28042;43.986;22.860;2022-10-31T13:14:10;101524.59;;;27.44;31.84
42385;BME280;28042;43.986;22.860;2022-10-31T13:16:46;101523.78;;;27.44;31.81
42385;BME280;28042;43.986;22.860;2022-10-31T13:19:44;101524.56;;;27.49;31.84
42385;BME280;28042;43.986;22.860;2022-10-31T13:22:21;101515.28;;;27.54;31.83
42385;BME280;28042;43.986;22.860;2022-10-31T13:27:25;101513.75;;;27.32;31.94
42385;BME280;28042;43.986;22.860;2022-10-31T13:30:12;101523.22;;;27.42;31.47
42385;BME280;28042;43.986;22.860;2022-10-31T13:32:46;101521.53;;;27.46;31.26
42385;BME280;28042;43.986;22.860;2022-10-31T13:35:28;101488.88;;;27.26;31.17
42385;BME280;28042;43.986;22.860;2022-10-31T13:46:42;101475.25;;;27.09;31.51
42385;BME280;28042;43.986;22.860;2022-10-31T13:57:19;101497.38;;;27.00;32.34
42385;BME280;28042;43.986;22.860;2022-10-31T13:59:56;101480.13;;;26.83;32.46
42385;BME280;28042;43.986;22.860;2022-10-31T14:02:28;101519.03;;;26.90;32.28
42385;BME280;28042;43.986;22.860;2022-10-31T14:05:04;101438.06;;;26.39;32.75
42385;BME280;28042;43.986;22.860;2022-10-31T14:07:32;101475.25;;;26.44;33.15
42385;BME280;28042;43.986;22.860;2022-10-31T14:10:06;101503.50;;;26.53;33.36
42385;BME280;28042;43.986;22.860;2022-10-31T14:12:46;101519.16;;;26.49;33.78
42385;BME280;28042;43.986;22.860;2022-10-31T14:15:26;101509.13;;;26.33;33.71
42385;BME280;28042;43.986;22.860;2022-10-31T14:18:30;101518.94;;;26.20;34.82
42385;BME280;28042;43.986;22.860;2022-10-31T14:21:28;101509.19;;;26.02;35.00
42385;BME280;28042;43.986;22.860;2022-10-31T14:23:55;101502.22;;;25.84;35.24
42385;BME280;28042;43.986;22.860;2022-10-31T14:31:42;101517.25;;;25.43;36.37
42385;BME280;28042;43.986;22.860;2022-10-31T14:39:33;101522.50;;;25.14;37.28
42385;BME280;28042;43.986;22.860;2022-10-31T14:51:00;101526.59;;;24.38;39.52
42385;BME280;28042;43.986;22.860;2022-10-31T14:53:53;101523.44;;;24.24;40.62
42385;BME280;28042;43.986;22.860;2022-10-31T14:58:53;101512.28;;;23.87;41.42
42385;BME280;28042;43.986;22.860;2022-10-31T15:01:27;101528.09;;;23.77;41.85
42385;BME280;28042;43.986;22.860;2022-10-31T15:04:13;101519.31;;;23.63;41.31
42385;BME280;28042;43.986;22.860;2022-10-31T15:06:43;101525.88;;;23.52;42.29
42385;BME280;28042;43.986;22.860;2022-10-31T15:11:47;101490.53;;;22.76;43.39
42385;BME280;28042;43.986;22.860;2022-10-31T15:14:31;101480.81;;;22.57;43.86
42385;BME280;28042;43.986;22.860;2022-10-31T15:16:58;101504.22;;;22.39;44.86
42385;BME280;28042;43.986;22.860;2022-10-31T15:19:25;101543.41;;;22.38;45.02
42385;BME280;28042;43.986;22.860;2022-10-31T15:21:55;101512.69;;;21.94;46.04
42385;BME280;28042;43.986;22.860;2022-10-31T15:24:24;101542.00;;;21.85;45.62
42385;BME280;28042;43.986;22.860;2022-10-31T15:26:53;101493.91;;;21.51;45.24
42385;BME280;28042;43.986;22.860;2022-10-31T15:29:23;101532.47;;;21.64;45.43
42385;BME280;28042;43.986;22.860;2022-10-31T15:31:53;101495.97;;;21.27;45.19
42385;BME280;28042;43.986;22.860;2022-10-31T15:34:26;101543.47;;;21.42;46.62
42385;BME280;28042;43.986;22.860;2022-10-31T15:36:53;101543.16;;;21.27;46.88
42385;BME280;28042;43.986;22.860;2022-10-31T15:39:20;101549.47;;;21.10;47.74
42385;BME280;28042;43.986;22.860;2022-10-31T15:41:51;101541.84;;;20.89;47.97
42385;BME280;28042;43.986;22.860;2022-10-31T15:44:21;101563.81;;;20.79;48.71